Time;durP1;ratioP1;P1;durP2;ratioP2;P2;SDS_P1;SDS_P2;PMS_P1;PMS_P2;Temp;Humidity;BMP_temperature;BMP_pressure;BME280_temperature;BME280_humidity;BME280_pressure;Samples;Min_cycle;Max_cycle;Signal;HPM_P1;HPM_P2
2024/02/12 00:00:31;;;;;;;0.15;0.15;;;;;;;25.34;28.23;97839.75;7389460;19;20011;-79
2024/02/12 00:02:57;;;;;;;0.38;0.38;;;;;;;25.97;27.27;97846.88;7389425;19;20014;-79
2024/02/12 00:05:23;;;;;;;0.10;0.10;;;;;;;26.05;27.31;97847.28;7388007;19;20052;-79
2024/02/12 00:07:49;;;;;;;17.48;1.25;;;;;;;26.07;27.23;97849.53;7385818;19;20023;-79
2024/02/12 00:10:15;;;;;;;0.82;0.70;;;;;;;25.89;27.49;97851.38;7386926;19;20014;-79
2024/02/12 00:12:42;;;;;;;0.32;0.30;;;;;;;25.08;28.02;97858.22;7385708;19;20034;-79
2024/02/12 00:15:12;;;;;;;20.38;1.20;;;;;;;24.98;27.71;97860.47;7387153;19;20022;-79
2024/02/12 00:17:41;;;;;;;2.28;0.85;;;;;;;24.79;27.75;97860.78;7385535;19;20026;-79
2024/02/12 00:20:11;;;;;;;0.43;0.43;;;;;;;25.12;27.86;97866.97;7384121;19;20115;-79
2024/02/12 00:22:41;;;;;;;2.67;1.20;;;;;;;24.82;28.00;97868.06;7384808;19;20555;-79
2024/02/12 00:25:08;;;;;;;0.43;0.43;;;;;;;24.57;28.04;97862.25;7387797;19;20026;-79
2024/02/12 00:27:36;;;;;;;1.05;0.95;;;;;;;24.50;27.97;97869.69;7387152;19;20055;-79
2024/02/12 00:30:04;;;;;;;0.30;0.30;;;;;;;24.44;28.15;97871.44;7393224;19;20019;-79
2024/02/12 00:32:31;;;;;;;1.50;0.70;;;;;;;24.37;27.93;97872.41;7394786;19;20476;-79
2024/02/12 00:34:57;;;;;;;0.65;0.65;;;;;;;24.27;28.18;97868.97;7393084;19;20022;-79
2024/02/12 00:37:27;;;;;;;0.60;0.60;;;;;;;24.24;28.10;97865.25;7394654;19;20046;-79
2024/02/12 00:39:53;;;;;;;8.60;1.08;;;;;;;25.52;27.31;97863.63;7394263;19;20026;-79
2024/02/12 00:42:19;;;;;;;0.50;0.50;;;;;;;26.21;26.64;97864.56;7396592;19;20015;-79
2024/02/12 00:44:46;;;;;;;0.28;0.28;;;;;;;26.65;26.26;97866.94;7398125;19;20018;-79
2024/02/12 00:47:12;;;;;;;8.48;1.88;;;;;;;26.45;26.37;97874.44;7393921;19;20018;-79
2024/02/12 00:49:40;;;;;;;1.02;0.85;;;;;;;26.64;25.85;97870.44;7392812;19;20021;-79
2024/02/12 00:52:07;;;;;;;0.82;0.50;;;;;;;25.51;26.75;97859.28;7392650;19;20018;-79
2024/02/12 00:54:35;;;;;;;0.80;0.73;;;;;;;26.02;26.48;97871.41;7391825;19;20035;-79
2024/02/12 00:57:01;;;;;;;2.25;0.65;;;;;;;25.75;26.25;97874.16;7391286;19;20347;-79
2024/02/12 00:59:27;;;;;;;0.30;0.30;;;;;;;25.07;27.20;97879.53;7392496;19;20082;-79
2024/02/12 01:01:53;;;;;;;3.20;0.75;;;;;;;25.03;26.85;97873.59;7393765;19;20048;-79
2024/02/12 01:04:19;;;;;;;0.10;0.08;;;;;;;27.09;25.43;97874.22;7396654;19;20018;-79
2024/02/12 01:06:45;;;;;;;1.85;1.35;;;;;;;27.54;25.47;97882.88;7394484;19;20019;-79
2024/02/12 01:09:13;;;;;;;0.60;0.43;;;;;;;27.75;24.77;97885.34;7391804;19;20038;-79
2024/02/12 01:11:39;;;;;;;0.30;0.30;;;;;;;27.78;24.92;97878.34;7391778;19;20401;-79
2024/02/12 01:14:06;;;;;;;0.55;0.55;;;;;;;27.92;24.71;97881.84;7394981;19;20045;-79
2024/02/12 01:16:32;;;;;;;0.20;0.20;;;;;;;28.03;24.86;97880.97;7394440;19;20082;-79
2024/02/12 01:18:59;;;;;;;0.40;0.40;;;;;;;28.39;24.26;97881.94;7391818;19;20074;-79
2024/02/12 01:21:26;;;;;;;1.33;0.75;;;;;;;28.12;24.06;97879.97;7391434;19;20031;-79
2024/02/12 01:23:52;;;;;;;0.10;0.10;;;;;;;28.27;24.48;97884.97;7394120;19;20036;-79
2024/02/12 01:26:19;;;;;;;1.38;0.73;;;;;;;28.34;24.14;97886.72;7391131;19;20102;-79
2024/02/12 01:28:45;;;;;;;0.28;0.28;;;;;;;28.48;23.80;97886.63;7392640;19;20369;-79
2024/02/12 01:31:18;;;;;;;0.20;0.20;;;;;;;28.51;23.75;97894.66;7391109;19;20041;-78
2024/02/12 01:33:45;;;;;;;0.10;0.10;;;;;;;29.22;23.29;97880.59;7389894;19;20018;-79
2024/02/12 01:36:12;;;;;;;1.65;0.47;;;;;;;29.59;22.98;97877.09;7392367;19;20031;-79
2024/02/12 01:38:39;;;;;;;0.57;0.20;;;;;;;29.53;23.24;97889.06;7388001;19;20082;-78
2024/02/12 01:41:06;;;;;;;0.20;0.20;;;;;;;30.02;22.91;97894.63;7388524;19;20562;-79
2024/02/12 01:43:36;;;;;;;2.58;0.50;;;;;;;30.56;22.55;97902.47;7391750;19;20046;-79
2024/02/12 01:46:06;;;;;;;0.20;0.20;;;;;;;30.81;22.32;97898.34;7394369;19;20026;-79
2024/02/12 01:48:35;;;;;;;4.82;0.90;;;;;;;30.92;21.92;97891.59;7392398;19;20037;-79
2024/02/12 01:51:09;;;;;;;0.30;0.30;;;;;;;31.08;22.12;97902.94;7390805;19;20420;-79
2024/02/12 01:53:37;;;;;;;2.22;0.60;;;;;;;29.73;22.70;97900.63;7389470;19;20021;-79
2024/02/12 01:56:08;;;;;;;0.10;0.10;;;;;;;30.01;22.50;97912.53;7388475;19;20022;-79
2024/02/12 01:58:36;;;;;;;;;;;;;;;30.14;22.57;97911.59;7391934;19;20033;-79
2024/02/12 02:01:03;;;;;;;0.17;0.10;;;;;;;30.04;22.86;97911.22;7393604;19;19930;-79
2024/02/12 02:03:30;;;;;;;0.22;0.22;;;;;;;29.92;22.94;97917.94;7390039;19;20018;-79
2024/02/12 02:05:56;;;;;;;0.47;0.47;;;;;;;31.28;22.26;97918.75;7393672;19;20011;-80
2024/02/12 02:08:39;;;;;;;0.15;0.15;;;;;;;31.88;22.18;97913.56;7388920;19;20109;-79
2024/02/12 02:11:10;;;;;;;0.40;0.40;;;;;;;32.33;21.66;97913.56;7391351;19;20119;-79
2024/02/12 02:13:42;;;;;;;2.72;0.65;;;;;;;32.44;21.33;97921.09;7386679;19;20035;-79
2024/02/12 02:16:09;;;;;;;0.35;0.35;;;;;;;32.31;21.77;97915.63;7392914;19;20037;-79
2024/02/12 02:18:36;;;;;;;0.40;0.40;;;;;;;31.89;21.95;97926.53;7389006;19;20011;-79
2024/02/12 02:21:03;;;;;;;2.08;1.55;;;;;;;31.70;22.22;97927.34;7386745;19;20051;-79
2024/02/12 02:23:29;;;;;;;0.17;0.17;;;;;;;31.76;21.92;97939.06;7387702;19;20664;-79
2024/02/12 02:25:56;;;;;;;1.23;0.90;;;;;;;31.74;21.88;97936.13;7393356;19;20025;-79
2024/02/12 02:28:23;;;;;;;3.50;0.65;;;;;;;31.88;21.92;97925.06;7390376;19;20010;-79
2024/02/12 02:30:50;;;;;;;0.35;0.35;;;;;;;32.11;21.74;97938.78;7390967;19;20018;-79
2024/02/12 02:33:19;;;;;;;0.32;0.32;;;;;;;32.21;22.16;97936.22;7391499;19;20042;-79
2024/02/12 02:35:45;;;;;;;0.20;0.20;;;;;;;31.95;22.21;97939.00;7391686;19;20017;-79
2024/02/12 02:38:12;;;;;;;0.43;0.30;;;;;;;31.16;22.62;97929.84;7388531;19;20025;-79
2024/02/12 02:40:38;;;;;;;0.22;0.13;;;;;;;29.85;23.05;97941.31;7390882;19;20029;-79
2024/02/12 02:43:05;;;;;;;0.30;0.30;;;;;;;31.09;22.53;97950.41;7388744;19;20019;-79
2024/02/12 02:45:32;;;;;;;0.68;0.40;;;;;;;31.57;22.25;97942.75;7392348;19;20010;-79
2024/02/12 02:47:58;;;;;;;0.20;0.20;;;;;;;31.65;22.33;97940.88;7386500;19;20010;-79
2024/02/12 02:50:24;;;;;;;0.90;0.43;;;;;;;30.26;22.99;97955.88;7388256;19;20364;-79
2024/02/12 02:52:50;;;;;;;0.20;0.20;;;;;;;30.04;23.52;97951.41;7387740;19;20437;-79
2024/02/12 02:55:17;;;;;;;1.98;1.00;;;;;;;29.90;23.40;97951.56;7389746;19;20102;-79
2024/02/12 02:57:44;;;;;;;0.20;0.20;;;;;;;29.88;23.46;97952.25;7392834;19;20011;-79
2024/02/12 03:00:12;;;;;;;0.57;0.55;;;;;;;30.64;22.84;97959.53;7386655;19;20038;-79
2024/02/12 03:02:39;;;;;;;1.20;0.30;;;;;;;30.95;22.77;97952.78;7393233;19;20452;-79
2024/02/12 03:05:06;;;;;;;0.30;0.30;;;;;;;32.82;21.35;97956.84;7388279;19;20547;-79
2024/02/12 03:07:35;;;;;;;1.00;0.22;;;;;;;33.39;21.03;97952.66;7387880;19;20023;-80
2024/02/12 03:10:01;;;;;;;0.32;0.28;;;;;;;34.21;20.94;97951.13;7388887;19;20026;-79
2024/02/12 03:12:30;;;;;;;0.30;0.30;;;;;;;34.38;20.61;97955.84;7388515;19;20368;-80
2024/02/12 03:14:57;;;;;;;0.50;0.28;;;;;;;34.84;20.33;97954.00;7388394;19;20124;-80
2024/02/12 03:17:23;;;;;;;0.20;0.20;;;;;;;35.04;20.35;97953.72;7392559;19;20018;-80
2024/02/12 03:19:49;;;;;;;1.85;0.82;;;;;;;34.85;20.45;97946.03;7388732;19;20037;-80
2024/02/12 03:22:16;;;;;;;0.15;0.15;;;;;;;35.36;20.08;97951.44;7387988;19;20053;-80
2024/02/12 03:24:42;;;;;;;0.20;0.20;;;;;;;35.44;20.04;97957.34;7388290;19;20030;-80
2024/02/12 03:27:08;;;;;;;0.68;0.25;;;;;;;35.17;20.38;97964.09;7390970;19;20019;-80
2024/02/12 03:29:34;;;;;;;0.70;0.70;;;;;;;34.64;20.23;97955.72;7392703;19;20025;-80
2024/02/12 03:32:00;;;;;;;0.25;0.25;;;;;;;33.50;21.17;97965.94;7391765;19;20362;-79
2024/02/12 03:34:29;;;;;;;0.15;0.15;;;;;;;32.50;21.65;97958.75;7388742;19;20042;-79
2024/02/12 03:36:58;;;;;;;0.47;0.47;;;;;;;32.48;21.74;97970.25;7390427;19;20023;-80
2024/02/12 03:39:25;;;;;;;0.20;0.20;;;;;;;32.62;21.87;97976.41;7386342;19;20472;-80
2024/02/12 03:41:52;;;;;;;0.32;0.32;;;;;;;32.70;21.93;97979.53;7385649;19;20022;-80
2024/02/12 03:44:18;;;;;;;0.10;0.10;;;;;;;33.22;21.51;97996.91;7392195;19;20021;-80
2024/02/12 03:46:46;;;;;;;0.20;0.20;;;;;;;32.72;22.18;97994.03;7391801;19;20031;-80
2024/02/12 04:00:22;;;;;;;0.10;0.10;;;;;;;33.09;22.44;97995.84;7388087;19;20019;-79
2024/02/12 04:02:48;;;;;;;0.20;0.20;;;;;;;32.60;22.67;97985.00;7390763;19;20021;-79
2024/02/12 04:05:14;;;;;;;0.25;0.25;;;;;;;31.20;23.24;97996.13;7394862;19;20010;-80
2024/02/12 04:07:41;;;;;;;0.10;0.10;;;;;;;31.69;23.25;97994.97;7396825;19;20062;-80
2024/02/12 04:10:10;;;;;;;0.20;0.20;;;;;;;29.96;24.62;98004.22;7400144;19;20018;-80
2024/02/12 04:12:42;;;;;;;0.20;0.20;;;;;;;29.93;24.10;98011.28;7392319;19;20089;-80
2024/02/12 04:15:11;;;;;;;0.22;0.15;;;;;;;28.78;25.28;98013.34;7393896;19;20011;-80
2024/02/12 04:17:37;;;;;;;0.20;0.10;;;;;;;27.92;25.83;98012.75;7391194;19;20007;-80
2024/02/12 04:20:05;;;;;;;0.28;0.28;;;;;;;27.67;25.72;98016.53;7395037;19;20016;-80
2024/02/12 04:22:33;;;;;;;0.20;0.20;;;;;;;27.80;26.01;98027.22;7392964;19;20014;-80
2024/02/12 04:25:00;;;;;;;0.20;0.10;;;;;;;28.02;25.79;98033.31;7393330;19;20439;-80
2024/02/12 04:27:28;;;;;;;0.20;0.20;;;;;;;28.00;25.94;98031.09;7394884;19;20029;-80
2024/02/12 04:29:57;;;;;;;0.28;0.28;;;;;;;26.77;26.61;98032.50;7394721;19;20026;-79
2024/02/12 04:32:24;;;;;;;0.32;0.25;;;;;;;26.76;26.67;98037.50;7398417;19;20022;-79
2024/02/12 04:34:50;;;;;;;0.10;0.10;;;;;;;25.88;27.74;98041.75;7393949;19;20023;-80
2024/02/12 04:37:16;;;;;;;2.22;0.45;;;;;;;24.58;28.93;98048.78;7393810;19;20014;-79
2024/02/12 04:39:42;;;;;;;0.10;0.10;;;;;;;25.20;28.54;98040.53;7392861;19;20026;-79
2024/02/12 04:42:09;;;;;;;0.10;0.10;;;;;;;25.25;28.28;98048.69;7394206;19;20026;-80
2024/02/12 04:44:35;;;;;;;0.20;0.20;;;;;;;23.52;30.33;98054.63;7397870;19;20014;-79
2024/02/12 04:47:02;;;;;;;0.38;0.38;;;;;;;23.41;30.66;98063.84;7394410;19;20018;-80
2024/02/12 04:49:29;;;;;;;0.15;0.15;;;;;;;23.25;30.66;98059.88;7393591;19;20018;-80
2024/02/12 04:51:55;;;;;;;0.15;0.15;;;;;;;23.21;30.67;98065.28;7392978;19;20094;-79
2024/02/12 04:54:25;;;;;;;0.30;0.30;;;;;;;21.46;32.57;98061.09;7395023;19;20334;-79
2024/02/12 04:56:51;;;;;;;0.10;0.10;;;;;;;22.70;31.35;98063.13;7394184;19;20021;-79
2024/02/12 04:59:20;;;;;;;0.28;0.28;;;;;;;23.06;30.82;98059.97;7394076;19;20369;-79
2024/02/12 05:01:47;;;;;;;0.10;0.10;;;;;;;20.61;32.87;98074.34;7395084;19;20037;-79
2024/02/12 05:04:17;;;;;;;0.68;0.50;;;;;;;20.86;33.23;98071.31;7394691;19;20295;-80
2024/02/12 05:06:45;;;;;;;0.10;0.10;;;;;;;21.98;32.00;98073.53;7392746;19;20019;-80
2024/02/12 05:09:11;;;;;;;0.40;0.40;;;;;;;22.23;31.65;98068.28;7396084;19;20547;-79
2024/02/12 05:11:37;;;;;;;0.28;0.28;;;;;;;21.36;32.63;98071.63;7395622;19;20041;-80
2024/02/12 05:14:03;;;;;;;0.40;0.35;;;;;;;19.50;34.50;98076.59;7391934;19;20089;-80
2024/02/12 05:16:32;;;;;;;0.20;0.20;;;;;;;20.19;34.07;98082.22;7392159;19;20035;-80
2024/02/12 05:24:28;;;;;;;0.30;0.28;;;;;;;18.98;35.22;98093.97;7391518;19;20424;-80
2024/02/12 05:26:56;;;;;;;0.10;0.10;;;;;;;20.62;33.57;98080.75;7392164;19;20357;-79
2024/02/12 05:29:23;;;;;;;0.20;0.20;;;;;;;23.03;30.68;98089.56;7391828;19;20374;-80
2024/02/12 05:31:50;;;;;;;0.28;0.25;;;;;;;22.54;31.12;98083.28;7393724;19;20018;-79
2024/02/12 05:34:20;;;;;;;0.10;0.10;;;;;;;21.94;31.71;98092.31;7397819;19;20030;-79
2024/02/12 05:36:48;;;;;;;0.32;0.32;;;;;;;18.47;35.42;98108.59;7391268;19;20534;-79
2024/02/12 05:39:16;;;;;;;0.25;0.25;;;;;;;17.66;36.58;98109.81;7392687;19;20010;-79
2024/02/12 05:41:42;;;;;;;0.38;0.38;;;;;;;18.42;35.77;98118.00;7391771;19;20034;-79
2024/02/12 05:44:08;;;;;;;0.20;0.20;;;;;;;18.58;35.48;98116.63;7391757;19;20018;-79
2024/02/12 05:46:35;;;;;;;0.38;0.28;;;;;;;18.44;35.49;98113.31;7394827;19;20014;-80
2024/02/12 05:49:01;;;;;;;0.40;0.40;;;;;;;19.11;34.84;98114.19;7390989;19;20036;-79
2024/02/12 05:51:27;;;;;;;0.50;0.30;;;;;;;20.74;32.46;98107.91;7394531;19;20021;-80
2024/02/12 05:53:53;;;;;;;6.07;0.98;;;;;;;19.13;34.66;98105.91;7388565;19;20073;-80
2024/02/12 05:56:21;;;;;;;0.10;0.10;;;;;;;20.55;32.43;98104.22;7393066;19;20087;-80
2024/02/12 05:58:47;;;;;;;0.30;0.20;;;;;;;18.10;35.33;98116.63;7389314;19;20051;-79
2024/02/12 06:01:13;;;;;;;0.20;0.20;;;;;;;17.58;36.13;98123.16;7388290;19;20017;-80
2024/02/12 06:03:39;;;;;;;0.20;0.20;;;;;;;17.68;36.48;98126.91;7388649;19;20010;-80
2024/02/12 06:06:05;;;;;;;0.90;0.55;;;;;;;17.70;36.05;98140.41;7387713;19;20031;-79
2024/02/12 06:08:32;;;;;;;2.08;0.30;;;;;;;18.23;36.10;98140.25;7390459;19;20018;-80
2024/02/12 06:10:58;;;;;;;0.30;0.30;;;;;;;20.52;33.68;98136.50;7394337;19;20475;-80
2024/02/12 06:13:24;;;;;;;0.30;0.30;;;;;;;21.96;31.72;98120.81;7394485;19;20029;-80
2024/02/12 06:15:51;;;;;;;0.15;0.15;;;;;;;21.47;32.62;98119.97;7388182;19;20019;-80
2024/02/12 06:18:17;;;;;;;0.10;0.10;;;;;;;21.53;32.47;98128.91;7394305;19;20015;-80
2024/02/12 06:20:44;;;;;;;0.20;0.20;;;;;;;21.57;32.49;98123.56;7391249;19;20022;-79
2024/02/12 06:23:10;;;;;;;1.52;0.25;;;;;;;21.68;32.23;98130.72;7387328;19;20019;-79
2024/02/12 06:25:36;;;;;;;0.20;0.20;;;;;;;20.08;33.76;98145.66;7390931;19;20579;-79
2024/02/12 06:28:05;;;;;;;0.35;0.15;;;;;;;20.67;33.70;98137.03;7389693;19;20050;-80
2024/02/12 06:30:32;;;;;;;0.20;0.20;;;;;;;21.30;32.76;98133.47;7385882;19;20022;-80
2024/02/12 06:32:58;;;;;;;0.98;0.65;;;;;;;21.77;31.71;98135.69;7386863;19;20329;-79
2024/02/12 06:35:25;;;;;;;0.20;0.20;;;;;;;21.68;31.59;98133.56;7390012;19;20019;-79
2024/02/12 06:37:51;;;;;;;0.10;0.10;;;;;;;21.64;31.33;98138.94;7391288;19;20379;-79
2024/02/12 06:40:20;;;;;;;0.17;0.17;;;;;;;21.63;31.63;98148.78;7386440;19;20033;-79
2024/02/12 06:42:47;;;;;;;0.30;0.30;;;;;;;22.26;31.22;98135.13;7393681;19;20014;-80
2024/02/12 06:45:16;;;;;;;0.20;0.20;;;;;;;23.92;29.34;98141.88;7388279;19;20039;-79
2024/02/12 06:47:43;;;;;;;0.32;0.32;;;;;;;24.12;28.56;98148.22;7393141;19;20010;-79
2024/02/12 06:50:11;;;;;;;0.10;0.10;;;;;;;22.72;29.87;98146.28;7389411;19;20022;-79
2024/02/12 06:52:38;;;;;;;0.45;0.45;;;;;;;21.73;30.81;98149.53;7389035;19;20057;-79
2024/02/12 06:55:11;;;;;;;0.15;0.15;;;;;;;21.45;31.22;98155.88;7388421;19;20015;-79
2024/02/12 06:57:37;;;;;;;1.13;0.30;;;;;;;21.38;31.26;98168.06;7390756;19;20478;-80
2024/02/12 07:00:04;;;;;;;0.28;0.28;;;;;;;21.39;30.85;98164.69;7389846;19;20022;-79
2024/02/12 07:02:34;;;;;;;0.20;0.20;;;;;;;21.31;31.08;98169.69;7393427;19;20465;-79
2024/02/12 07:05:03;;;;;;;0.57;0.38;;;;;;;21.25;30.93;98165.63;7393612;19;20337;-80
2024/02/12 07:07:30;;;;;;;0.50;0.50;;;;;;;21.14;30.87;98172.59;7388771;19;20406;-80
2024/02/12 07:10:00;;;;;;;5.63;1.17;;;;;;;21.11;31.09;98176.63;7386220;19;20037;-79
2024/02/12 07:12:26;;;;;;;7.43;0.88;;;;;;;21.13;31.35;98183.19;7387517;19;20628;-81
2024/02/12 07:14:52;;;;;;;0.65;0.65;;;;;;;21.04;31.27;98181.06;7388634;19;20539;-80
2024/02/12 07:17:19;;;;;;;0.32;0.32;;;;;;;21.13;30.94;98182.44;7392605;19;20021;-80
2024/02/12 07:19:46;;;;;;;1.35;0.85;;;;;;;21.08;31.22;98192.72;7392662;19;20039;-80
2024/02/12 07:22:13;;;;;;;0.50;0.50;;;;;;;21.12;31.15;98198.69;7387479;19;20014;-80
2024/02/12 07:24:40;;;;;;;0.65;0.30;;;;;;;21.17;31.12;98211.06;7387353;19;20123;-80
2024/02/12 07:27:07;;;;;;;0.30;0.25;;;;;;;23.29;29.32;98202.19;7387860;19;20035;-80
2024/02/12 07:29:33;;;;;;;0.40;0.40;;;;;;;25.38;27.53;98204.81;7390275;19;20010;-80
2024/02/12 07:31:59;;;;;;;0.60;0.45;;;;;;;25.84;26.92;98209.06;7388556;19;20021;-80
2024/02/12 07:34:25;;;;;;;1.75;1.38;;;;;;;24.09;28.21;98219.19;7390974;19;20015;-80
2024/02/12 07:36:51;;;;;;;0.65;0.20;;;;;;;23.80;28.40;98227.09;7389181;19;20314;-80
2024/02/12 07:39:19;;;;;;;0.22;0.22;;;;;;;23.59;28.50;98232.00;7395502;19;20086;-80
2024/02/12 07:41:47;;;;;;;0.20;0.20;;;;;;;23.60;28.89;98237.09;7394322;19;20019;-80
2024/02/12 07:44:13;;;;;;;0.38;0.38;;;;;;;23.60;28.47;98245.63;7396007;19;20018;-80
2024/02/12 07:46:40;;;;;;;0.20;0.20;;;;;;;23.61;28.57;98249.94;7399753;19;20037;-80
2024/02/12 07:49:06;;;;;;;0.10;0.10;;;;;;;24.61;27.93;98252.50;7396616;19;20427;-80
2024/02/12 07:51:32;;;;;;;0.10;0.10;;;;;;;24.98;27.38;98256.41;7392213;19;20022;-79
2024/02/12 07:53:58;;;;;;;0.35;0.35;;;;;;;25.15;27.18;98256.06;7388639;19;20022;-80
2024/02/12 07:56:24;;;;;;;0.30;0.30;;;;;;;25.24;27.26;98269.50;7387433;19;20021;-80
2024/02/12 07:58:50;;;;;;;0.20;0.20;;;;;;;25.31;27.52;98279.91;7389007;19;20015;-80
2024/02/12 08:01:17;;;;;;;0.22;0.22;;;;;;;25.34;27.39;98283.63;7389937;19;20042;-80
2024/02/12 08:03:43;;;;;;;2.83;0.80;;;;;;;25.75;27.11;98286.97;7391430;19;20094;-80
2024/02/12 08:06:09;;;;;;;0.13;0.13;;;;;;;24.79;27.89;98294.34;7393917;19;20022;-79
2024/02/12 08:08:35;;;;;;;0.70;0.60;;;;;;;25.04;28.25;98307.31;7392756;19;20032;-80
2024/02/12 08:11:02;;;;;;;1.00;0.55;;;;;;;24.65;28.61;98301.16;7395738;19;20014;-80
2024/02/12 08:13:28;;;;;;;0.45;0.45;;;;;;;24.63;28.52;98309.56;7393180;19;20015;-80
2024/02/12 08:15:54;;;;;;;0.50;0.40;;;;;;;25.28;27.78;98309.63;7391817;19;20022;-80
2024/02/12 08:18:21;;;;;;;0.20;0.20;;;;;;;25.72;27.96;98311.00;7394793;19;20126;-80
2024/02/12 08:20:47;;;;;;;0.10;0.10;;;;;;;25.85;28.19;98314.00;7394890;19;20040;-79
2024/02/12 08:23:13;;;;;;;4.32;1.10;;;;;;;26.02;27.55;98324.28;7390891;19;20116;-80
2024/02/12 08:25:39;;;;;;;0.20;0.20;;;;;;;26.09;27.99;98326.19;7392290;19;20078;-80
2024/02/12 08:28:07;;;;;;;0.50;0.50;;;;;;;25.39;28.98;98330.97;7393157;19;20037;-80
2024/02/12 08:30:33;;;;;;;1.60;0.95;;;;;;;25.91;28.66;98342.91;7392690;19;20019;-80
2024/02/12 08:32:59;;;;;;;0.10;0.10;;;;;;;27.40;27.25;98331.09;7395306;19;20022;-80
2024/02/12 08:35:25;;;;;;;0.57;0.57;;;;;;;27.38;27.05;98336.72;7397028;19;20109;-80
2024/02/12 08:37:52;;;;;;;0.55;0.40;;;;;;;27.10;27.30;98343.66;7391728;19;20023;-81
2024/02/12 08:40:18;;;;;;;0.10;0.10;;;;;;;26.97;27.53;98342.94;7395209;19;20011;-80
2024/02/12 08:42:50;;;;;;;0.32;0.30;;;;;;;27.27;27.78;98343.19;7392744;19;20022;-80
2024/02/12 08:45:16;;;;;;;0.17;0.17;;;;;;;27.23;27.84;98358.00;7390808;19;20026;-80
2024/02/12 08:47:42;;;;;;;6.22;0.52;;;;;;;27.48;27.45;98354.47;7394059;19;20063;-80
2024/02/12 08:50:10;;;;;;;0.30;0.10;;;;;;;27.17;27.45;98354.06;7391886;19;20352;-80
2024/02/12 08:52:37;;;;;;;0.20;0.20;;;;;;;27.09;28.03;98359.31;7395089;19;20022;-81
2024/02/12 08:55:10;;;;;;;0.20;0.20;;;;;;;27.05;28.20;98371.25;7390442;19;20015;-80
2024/02/12 08:57:43;;;;;;;0.30;0.30;;;;;;;26.53;28.79;98373.84;7393024;19;20018;-81
2024/02/12 09:00:12;;;;;;;0.20;0.20;;;;;;;28.24;27.43;98375.13;7393873;19;20452;-81
2024/02/12 09:02:38;;;;;;;0.10;0.10;;;;;;;28.50;27.29;98374.41;7391310;19;20078;-82
2024/02/12 09:05:10;;;;;;;0.40;0.40;;;;;;;27.26;28.25;98382.50;7398168;19;20049;-81
2024/02/12 09:07:37;;;;;;;0.20;0.20;;;;;;;27.29;28.31;98386.94;7391289;19;20134;-81
2024/02/12 09:10:14;;;;;;;0.30;0.30;;;;;;;27.85;27.56;98386.59;7392687;19;20014;-81
2024/02/12 09:12:40;;;;;;;0.30;0.30;;;;;;;27.92;27.86;98390.50;7391027;19;20014;-80
2024/02/12 09:15:10;;;;;;;0.28;0.15;;;;;;;27.39;28.06;98399.00;7393681;19;20014;-80
2024/02/12 09:17:36;;;;;;;0.40;0.40;;;;;;;27.14;28.14;98401.78;7394151;19;20022;-80
2024/02/12 09:20:04;;;;;;;0.30;0.30;;;;;;;27.14;28.08;98403.94;7392291;19;20026;-80
2024/02/12 09:22:33;;;;;;;0.30;0.22;;;;;;;27.20;28.38;98416.44;7394082;19;20476;-80
2024/02/12 09:25:01;;;;;;;0.20;0.15;;;;;;;27.18;28.33;98416.31;7397795;19;20015;-80
2024/02/12 09:27:28;;;;;;;1.85;0.20;;;;;;;27.42;28.43;98425.59;7392289;19;20464;-80
2024/02/12 09:29:55;;;;;;;7.63;0.32;;;;;;;27.92;28.01;98425.59;7392474;19;20034;-80
2024/02/12 09:32:21;;;;;;;0.40;0.40;;;;;;;28.67;27.38;98424.00;7391664;19;20464;-80
2024/02/12 09:34:47;;;;;;;0.10;0.10;;;;;;;28.74;27.45;98426.53;7395001;19;20471;-80
2024/02/12 09:37:13;;;;;;;0.20;0.20;;;;;;;28.74;27.42;98443.00;7392627;19;20550;-80
2024/02/12 09:39:39;;;;;;;0.10;0.10;;;;;;;28.73;27.13;98441.50;7392601;19;20035;-80
2024/02/12 09:42:05;;;;;;;6.57;0.57;;;;;;;29.89;26.43;98435.97;7390469;19;20490;-80
2024/02/12 09:44:33;;;;;;;0.10;0.10;;;;;;;30.30;26.19;98437.91;7393160;19;20085;-80
2024/02/12 09:47:06;;;;;;;0.70;0.40;;;;;;;30.44;26.31;98442.19;7391469;19;20014;-80
2024/02/12 09:49:34;;;;;;;0.50;0.22;;;;;;;30.55;26.22;98446.28;7392596;19;20038;-80
2024/02/12 09:52:04;;;;;;;2.55;0.65;;;;;;;30.24;25.94;98449.09;7393181;19;20033;-80
2024/02/12 09:54:30;;;;;;;5.05;1.30;;;;;;;28.07;27.51;98447.94;7390938;19;20047;-81
2024/02/12 09:56:58;;;;;;;5.50;2.08;;;;;;;27.68;27.90;98464.28;7389728;19;20006;-80
2024/02/12 09:59:25;;;;;;;14.52;2.25;;;;;;;27.75;27.69;98451.81;7392304;19;20022;-80
2024/02/12 10:01:51;;;;;;;5.80;1.20;;;;;;;30.21;25.72;98454.03;7392644;19;20485;-80
2024/02/12 10:04:19;;;;;;;8.50;2.47;;;;;;;30.06;25.77;98454.00;7395231;19;20015;-80
2024/02/12 10:06:54;;;;;;;0.80;0.80;;;;;;;27.89;27.10;98461.22;7396035;19;20465;-80
2024/02/12 10:09:20;;;;;;;2.63;0.90;;;;;;;25.65;29.57;98478.13;7388930;19;20027;-80
2024/02/12 10:11:46;;;;;;;0.50;0.50;;;;;;;25.42;29.67;98478.78;7390756;19;20018;-80
2024/02/12 10:14:13;;;;;;;7.32;0.88;;;;;;;23.94;31.24;98495.41;7387425;19;20041;-80
2024/02/12 10:16:41;;;;;;;6.07;1.23;;;;;;;24.20;30.86;98484.44;7392471;19;20500;-80
2024/02/12 10:19:07;;;;;;;1.05;0.30;;;;;;;24.36;30.99;98491.28;7390159;19;20039;-80
2024/02/12 10:21:33;;;;;;;0.30;0.25;;;;;;;24.40;31.03;98502.97;7390104;19;20019;-80
2024/02/12 10:24:03;;;;;;;1.05;0.93;;;;;;;24.07;31.54;98492.13;7388082;19;20380;-81
2024/02/12 10:26:29;;;;;;;5.15;1.02;;;;;;;24.54;31.17;98495.41;7394522;19;20019;-81
2024/02/12 10:29:00;;;;;;;3.15;0.60;;;;;;;24.23;31.33;98506.78;7389419;19;20015;-80
2024/02/12 10:31:26;;;;;;;1.23;1.13;;;;;;;25.53;29.98;98511.56;7389214;19;20015;-80
2024/02/12 10:33:52;;;;;;;0.10;0.10;;;;;;;24.89;30.93;98507.13;7389446;19;20475;-80
2024/02/12 10:36:20;;;;;;;0.22;0.22;;;;;;;23.55;32.60;98518.78;7390096;19;20010;-80
2024/02/12 10:38:49;;;;;;;3.92;0.90;;;;;;;24.66;31.19;98507.66;7389924;19;20020;-81
2024/02/12 10:41:28;;;;;;;0.30;0.20;;;;;;;23.71;31.98;98520.72;7389959;19;20014;-81
2024/02/12 10:43:56;;;;;;;10.40;1.08;;;;;;;24.32;31.79;98528.72;7387374;19;20066;-81
2024/02/12 10:46:24;;;;;;;0.22;0.22;;;;;;;24.73;31.26;98523.81;7391384;19;20119;-81
2024/02/12 10:48:52;;;;;;;3.05;0.95;;;;;;;25.97;29.92;98520.16;7389596;19;20022;-81
2024/02/12 10:51:23;;;;;;;8.25;0.80;;;;;;;25.11;30.67;98532.19;7387953;19;20003;-81
2024/02/12 10:53:50;;;;;;;2.13;0.43;;;;;;;24.64;30.97;98538.84;7387750;19;20539;-81
2024/02/12 10:56:17;;;;;;;0.73;0.73;;;;;;;25.37;30.78;98539.69;7387788;19;20044;-80
2024/02/12 10:58:44;;;;;;;10.43;0.57;;;;;;;22.76;32.94;98543.97;7389436;19;20543;-80
2024/02/12 11:01:15;;;;;;;2.25;0.57;;;;;;;21.75;34.79;98546.44;7389051;19;20019;-80
2024/02/12 11:03:49;;;;;;;1.30;0.35;;;;;;;23.96;32.40;98546.75;7389611;19;20580;-80
2024/02/12 11:06:17;;;;;;;1.17;0.60;;;;;;;23.73;32.58;98555.00;7391926;19;20014;-80
2024/02/12 11:08:46;;;;;;;1.13;0.50;;;;;;;26.34;29.26;98543.25;7390256;19;20041;-80
2024/02/12 11:11:20;;;;;;;0.40;0.40;;;;;;;29.53;27.08;98543.22;7383736;19;20055;-80
2024/02/12 11:13:47;;;;;;;9.15;1.20;;;;;;;29.64;26.80;98550.22;7380366;19;20037;-80
2024/02/12 11:16:22;;;;;;;4.75;0.82;;;;;;;28.68;27.37;98557.28;7383083;19;20412;-80
2024/02/12 11:18:58;;;;;;;1.85;0.45;;;;;;;27.46;27.73;98574.56;7387685;19;20467;-82
2024/02/12 11:21:35;;;;;;;0.10;0.10;;;;;;;27.09;28.28;98576.53;7384034;19;20019;-81
2024/02/12 11:24:10;;;;;;;2.00;0.85;;;;;;;27.87;27.68;98564.13;7385516;19;20021;-82
2024/02/12 11:26:49;;;;;;;2.40;0.60;;;;;;;26.28;28.85;98577.13;7386995;19;20010;-81
2024/02/12 11:29:17;;;;;;;0.73;0.65;;;;;;;25.01;30.00;98588.50;7390416;19;20030;-82
2024/02/12 11:31:44;;;;;;;4.95;0.70;;;;;;;24.88;30.49;98580.44;7389287;19;20043;-81
2024/02/12 11:34:14;;;;;;;0.30;0.20;;;;;;;25.64;29.37;98587.09;7391406;19;20100;-82
2024/02/12 11:36:41;;;;;;;2.30;1.20;;;;;;;25.40;29.85;98589.75;7389679;19;20022;-82
2024/02/12 11:39:07;;;;;;;0.50;0.43;;;;;;;24.01;30.90;98587.63;7393763;19;20049;-81
2024/02/12 11:41:34;;;;;;;1.02;0.35;;;;;;;25.61;29.96;98585.47;7388331;19;20117;-81
2024/02/12 11:44:07;;;;;;;1.05;0.80;;;;;;;25.81;29.98;98583.97;7387860;19;20025;-81
2024/02/12 11:46:38;;;;;;;0.30;0.30;;;;;;;25.18;30.66;98593.97;7388595;19;20052;-81
2024/02/12 11:49:06;;;;;;;1.97;0.43;;;;;;;26.13;29.38;98594.69;7389528;19;20019;-83
2024/02/12 11:51:37;;;;;;;0.55;0.55;;;;;;;27.17;28.54;98591.31;7387001;19;20070;-83